Time;durP1;ratioP1;P1;durP2;ratioP2;P2;SDS_P1;SDS_P2;PMS_P1;PMS_P2;Temp;Humidity;BMP_temperature;BMP_pressure;BME280_temperature;BME280_humidity;BME280_pressure;Samples;Min_cycle;Max_cycle;Signal;HPM_P1;HPM_P2
2022/10/11 00:00:53;;;;;;;12.10;2.35;;;8.90;99.90;;;;;;5004144;28;20544;-74
2022/10/11 00:03:19;;;;;;;9.40;2.03;;;8.80;99.90;;;;;;5008428;28;20057;-75
2022/10/11 00:05:45;;;;;;;13.57;2.38;;;8.90;99.90;;;;;;5005426;28;20077;-74
2022/10/11 00:08:12;;;;;;;10.57;2.13;;;8.90;99.90;;;;;;5002890;28;20076;-74
2022/10/11 00:10:39;;;;;;;13.32;2.53;;;8.80;99.90;;;;;;5002273;28;20122;-74
2022/10/11 00:13:08;;;;;;;10.85;1.90;;;8.90;99.90;;;;;;5003585;28;20792;-74
2022/10/11 00:15:34;;;;;;;14.25;2.70;;;8.80;99.90;;;;;;5006400;28;20042;-74
2022/10/11 00:18:00;;;;;;;12.50;2.22;;;8.80;99.90;;;;;;5000564;28;20493;-74
2022/10/11 00:20:25;;;;;;;14.48;3.45;;;8.80;99.90;;;;;;5000624;28;20090;-73
2022/10/11 00:22:52;;;;;;;12.52;2.90;;;8.70;99.90;;;;;;5007925;28;20050;-73
2022/10/11 00:25:18;;;;;;;11.57;2.03;;;8.70;99.90;;;;;;5004736;28;20038;-74
2022/10/11 00:27:44;;;;;;;10.73;2.33;;;8.80;99.90;;;;;;5005703;28;20053;-75
2022/10/11 00:30:10;;;;;;;18.15;2.45;;;8.70;99.90;;;;;;5001174;28;20046;-74
2022/10/11 00:32:37;;;;;;;15.88;2.13;;;8.70;99.90;;;;;;5005441;28;20049;-74
2022/10/11 00:35:05;;;;;;;13.63;2.47;;;8.60;99.90;;;;;;5006245;28;20056;-74
2022/10/11 00:37:38;;;;;;;9.70;2.72;;;8.60;99.90;;;;;;5005524;28;20042;-73
2022/10/11 00:40:07;;;;;;;11.82;1.95;;;8.50;99.90;;;;;;5016422;28;20045;-73
2022/10/11 00:42:33;;;;;;;12.13;2.13;;;8.60;99.90;;;;;;5017993;28;20049;-74
2022/10/11 00:45:40;;;;;;;13.52;2.78;;;8.50;99.90;;;;;;5014816;28;20184;-73
2022/10/11 00:48:20;;;;;;;14.80;2.30;;;8.50;99.90;;;;;;5015084;28;20457;-73
2022/10/11 00:50:46;;;;;;;12.32;2.17;;;8.50;99.90;;;;;;5015390;28;20125;-74
2022/10/11 00:53:12;;;;;;;12.52;2.17;;;8.50;99.90;;;;;;5010804;28;20737;-74
2022/10/11 00:56:00;;;;;;;11.32;2.05;;;8.50;99.90;;;;;;5006607;28;20046;-74
2022/10/11 00:58:25;;;;;;;11.25;1.83;;;8.50;99.90;;;;;;5009561;28;20041;-74
2022/10/11 01:00:52;;;;;;;17.58;2.55;;;8.50;99.90;;;;;;5003554;28;20405;-75
2022/10/11 01:03:22;;;;;;;15.63;2.50;;;8.40;99.90;;;;;;5002545;28;20155;-74
2022/10/11 01:05:48;;;;;;;18.15;5.28;;;8.40;99.90;;;;;;5000288;28;20048;-73
2022/10/11 01:08:14;;;;;;;13.50;2.25;;;8.40;99.90;;;;;;5002101;28;20049;-73
2022/10/11 01:10:40;;;;;;;12.93;2.55;;;8.30;99.90;;;;;;4998842;28;20042;-74
2022/10/11 01:13:34;;;;;;;19.27;2.05;;;8.30;99.90;;;;;;4998128;28;20057;-74
2022/10/11 01:16:26;;;;;;;14.70;2.63;;;8.40;99.90;;;;;;4999404;28;20074;-73
2022/10/11 01:19:04;;;;;;;11.35;2.00;;;8.30;99.90;;;;;;5003894;28;20050;-73
2022/10/11 01:21:39;;;;;;;12.65;2.50;;;8.30;99.90;;;;;;5013045;28;20050;-75
2022/10/11 01:24:10;;;;;;;10.90;2.13;;;8.30;99.90;;;;;;5011797;28;20057;-74
2022/10/11 01:26:55;;;;;;;10.70;2.17;;;8.20;99.90;;;;;;5012140;28;20034;-74
2022/10/11 01:30:07;;;;;;;21.27;3.28;;;8.20;99.90;;;;;;5006275;28;20053;-74
2022/10/11 01:32:45;;;;;;;17.73;2.80;;;8.20;99.90;;;;;;5003871;28;20053;-74
2022/10/11 01:35:30;;;;;;;18.77;2.70;;;8.10;99.90;;;;;;5011066;28;20054;-74
2022/10/11 01:38:07;;;;;;;9.68;2.33;;;8.10;99.90;;;;;;5007588;28;20034;-74
2022/10/11 01:40:42;;;;;;;12.57;2.67;;;8.10;99.90;;;;;;5005952;28;20042;-74
2022/10/11 01:43:09;;;;;;;13.35;2.22;;;8.00;99.90;;;;;;5008286;28;20073;-75
2022/10/11 01:45:40;;;;;;;12.20;2.10;;;8.10;99.90;;;;;;5005419;28;20050;-75
2022/10/11 01:48:10;;;;;;;9.63;1.95;;;8.00;99.90;;;;;;5006524;28;20065;-74
2022/10/11 01:50:51;;;;;;;12.52;1.90;;;7.90;99.90;;;;;;5009574;28;20411;-75
2022/10/11 01:54:19;;;;;;;12.77;3.08;;;7.90;99.90;;;;;;5007515;28;20049;-74
2022/10/11 01:57:02;;;;;;;14.25;1.80;;;7.90;99.90;;;;;;5006739;28;20046;-74
2022/10/11 01:59:35;;;;;;;12.52;2.17;;;7.90;99.90;;;;;;5011203;28;20451;-75
2022/10/11 02:02:31;;;;;;;18.77;2.38;;;7.90;99.90;;;;;;4997807;28;20072;-74
2022/10/11 02:05:16;;;;;;;16.75;2.63;;;7.80;99.90;;;;;;5011533;28;20132;-73
2022/10/11 02:07:48;;;;;;;15.15;2.25;;;7.80;99.90;;;;;;4995913;28;20058;-74
2022/10/11 02:10:29;;;;;;;13.05;1.90;;;7.80;99.90;;;;;;5001534;28;20137;-73
2022/10/11 02:13:02;;;;;;;15.65;2.47;;;7.70;99.90;;;;;;5004768;28;20112;-74
2022/10/11 02:15:30;;;;;;;11.07;2.03;;;7.70;99.90;;;;;;5011242;28;20053;-73
2022/10/11 02:18:01;;;;;;;18.48;2.97;;;7.70;99.90;;;;;;5007277;28;20045;-74
2022/10/11 02:20:29;;;;;;;12.70;2.17;;;7.60;99.90;;;;;;5000830;28;20049;-74
2022/10/11 02:23:02;;;;;;;9.95;1.83;;;7.60;99.90;;;;;;5008313;28;20052;-74
2022/10/11 02:25:33;;;;;;;13.43;2.05;;;7.50;99.90;;;;;;5011721;28;20493;-74
2022/10/11 02:28:03;;;;;;;8.63;1.95;;;7.50;99.90;;;;;;5007636;28;20063;-73
2022/10/11 02:30:30;;;;;;;16.65;1.95;;;7.50;99.90;;;;;;5003730;28;20072;-74
2022/10/11 02:32:57;;;;;;;10.85;2.10;;;7.50;99.90;;;;;;5006279;28;20481;-74
2022/10/11 02:35:27;;;;;;;13.38;2.50;;;7.50;99.90;;;;;;5010681;28;20054;-75
2022/10/11 02:38:04;;;;;;;16.13;3.20;;;7.50;99.90;;;;;;5009841;28;20450;-75
2022/10/11 02:40:40;;;;;;;10.98;2.25;;;7.50;99.90;;;;;;5009329;28;20050;-74
2022/10/11 02:43:40;;;;;;;16.95;2.83;;;7.40;99.90;;;;;;5011057;28;20041;-74
2022/10/11 02:46:09;;;;;;;11.52;2.78;;;7.50;99.90;;;;;;5004748;28;20035;-74
2022/10/11 02:48:36;;;;;;;12.15;2.67;;;7.50;99.90;;;;;;5010744;28;20684;-75
2022/10/11 02:51:03;;;;;;;9.30;2.53;;;7.60;99.90;;;;;;5007078;28;20042;-75
2022/10/11 02:53:29;;;;;;;15.93;2.40;;;7.60;99.90;;;;;;5008946;28;20067;-74
2022/10/11 02:55:55;;;;;;;11.75;2.30;;;7.70;99.90;;;;;;5012848;28;20057;-72
2022/10/11 02:58:22;;;;;;;14.23;2.78;;;7.70;99.90;;;;;;5003930;28;20060;-74
2022/10/11 03:00:48;;;;;;;14.27;2.20;;;7.70;99.90;;;;;;5003307;28;20046;-73
2022/10/11 03:03:14;;;;;;;15.98;2.53;;;7.70;99.90;;;;;;5009169;28;20042;-74
2022/10/11 03:05:40;;;;;;;12.75;2.33;;;7.70;99.90;;;;;;5007340;28;20049;-75
2022/10/11 03:08:11;;;;;;;11.93;2.40;;;7.70;99.90;;;;;;5008375;28;20104;-74
2022/10/11 03:10:37;;;;;;;16.55;3.33;;;7.70;99.90;;;;;;5005189;28;20131;-75
2022/10/11 03:13:03;;;;;;;19.48;4.60;;;7.70;99.90;;;;;;5002590;28;20199;-74
2022/10/11 03:15:29;;;;;;;16.55;2.90;;;7.70;99.90;;;;;;5004592;28;20109;-74
2022/10/11 03:17:55;;;;;;;10.82;2.42;;;7.80;99.90;;;;;;5007292;28;20456;-74
2022/10/11 03:20:21;;;;;;;19.80;2.97;;;7.70;99.90;;;;;;5003613;28;20061;-73
2022/10/11 03:22:46;;;;;;;19.30;2.83;;;7.70;99.90;;;;;;5008513;28;20049;-73
2022/10/11 03:25:12;;;;;;;27.73;4.28;;;7.80;99.90;;;;;;5008264;28;20416;-75
2022/10/11 03:27:38;;;;;;;13.32;2.33;;;7.70;99.90;;;;;;5011449;28;20152;-74
2022/10/11 03:30:04;;;;;;;18.20;2.60;;;7.90;99.90;;;;;;5006426;28;20612;-73
2022/10/11 03:32:30;;;;;;;16.58;2.95;;;7.90;99.90;;;;;;5006982;28;20513;-74
2022/10/11 03:34:56;;;;;;;16.38;2.25;;;7.90;99.90;;;;;;5006953;28;20037;-74
2022/10/11 03:37:22;;;;;;;17.10;3.35;;;8.00;99.90;;;;;;5005014;28;20512;-75
2022/10/11 03:39:48;;;;;;;16.77;2.88;;;8.00;99.90;;;;;;5008838;28;20095;-75
2022/10/11 03:42:13;;;;;;;14.48;2.72;;;8.00;99.90;;;;;;5008640;28;20065;-74
2022/10/11 03:44:40;;;;;;;12.55;2.03;;;8.00;99.90;;;;;;5001529;28;20054;-75
2022/10/11 03:47:09;;;;;;;19.75;2.63;;;8.10;99.90;;;;;;5002781;28;20038;-74
2022/10/11 03:49:35;;;;;;;8.82;2.13;;;8.10;99.90;;;;;;5008902;28;20061;-74
2022/10/11 03:52:01;;;;;;;10.18;2.20;;;8.10;99.90;;;;;;5011782;28;20073;-74
2022/10/11 03:54:26;;;;;;;11.43;2.30;;;8.10;99.90;;;;;;5003519;28;20468;-74
2022/10/11 03:56:52;;;;;;;13.57;2.45;;;8.10;99.90;;;;;;5005137;28;20576;-74
2022/10/11 03:59:18;;;;;;;13.27;2.70;;;8.10;99.90;;;;;;5020628;28;20093;-74
2022/10/11 04:01:43;;;;;;;20.98;3.20;;;8.00;99.90;;;;;;5007482;28;20051;-74
2022/10/11 04:04:09;;;;;;;14.63;3.17;;;8.00;99.90;;;;;;5004999;28;20056;-75
2022/10/11 04:06:35;;;;;;;16.95;2.65;;;8.10;99.90;;;;;;5006622;28;20444;-73
2022/10/11 04:09:00;;;;;;;15.45;2.78;;;8.10;99.90;;;;;;5006532;28;20054;-75
2022/10/11 04:11:26;;;;;;;16.48;3.10;;;8.10;99.90;;;;;;5003105;28;20049;-74
2022/10/11 04:13:52;;;;;;;16.52;3.08;;;8.20;99.90;;;;;;5006574;28;20052;-74
2022/10/11 04:16:18;;;;;;;14.82;2.40;;;8.30;99.90;;;;;;5001178;28;20397;-75
2022/10/11 04:18:43;;;;;;;14.13;3.55;;;8.40;99.90;;;;;;5003904;28;20091;-74
2022/10/11 04:21:09;;;;;;;14.48;2.90;;;8.40;99.90;;;;;;5008246;28;20129;-74
2022/10/11 04:23:34;;;;;;;13.48;3.33;;;8.40;99.90;;;;;;5003599;28;20042;-74
2022/10/11 04:26:12;;;;;;;18.58;2.30;;;8.50;99.90;;;;;;5007100;28;20054;-74
2022/10/11 04:28:37;;;;;;;12.73;2.42;;;8.40;99.90;;;;;;5001441;28;20044;-74
2022/10/11 04:31:04;;;;;;;17.13;3.10;;;8.40;99.90;;;;;;5005570;28;20136;-73
2022/10/11 04:33:30;;;;;;;12.07;2.35;;;8.40;99.90;;;;;;5005530;28;20436;-74
2022/10/11 04:35:56;;;;;;;13.23;2.22;;;8.40;99.90;;;;;;5008416;28;20046;-74
2022/10/11 04:38:23;;;;;;;16.88;2.55;;;8.30;99.90;;;;;;5005443;28;20050;-73
2022/10/11 04:40:49;;;;;;;18.05;3.22;;;8.40;99.90;;;;;;5006227;28;20042;-74
2022/10/11 04:43:17;;;;;;;17.83;3.03;;;8.30;99.90;;;;;;4999693;28;20050;-73
2022/10/11 04:45:43;;;;;;;15.18;2.65;;;8.30;99.90;;;;;;5017204;28;20075;-74
2022/10/11 04:48:09;;;;;;;15.00;2.50;;;8.30;99.90;;;;;;5007429;28;20108;-74
2022/10/11 04:50:35;;;;;;;13.75;2.45;;;8.20;99.90;;;;;;5005848;28;20038;-75
2022/10/11 04:53:01;;;;;;;22.27;2.78;;;8.20;99.90;;;;;;5004850;28;20085;-74
2022/10/11 04:55:27;;;;;;;15.77;4.10;;;8.30;99.90;;;;;;5007685;28;20045;-73
2022/10/11 04:57:53;;;;;;;19.85;3.72;;;8.20;99.90;;;;;;5004601;28;20485;-73
2022/10/11 05:00:19;;;;;;;14.80;2.70;;;8.10;99.90;;;;;;5000609;28;20037;-75
2022/10/11 05:02:45;;;;;;;15.75;3.05;;;8.10;99.90;;;;;;5003384;28;20059;-73
2022/10/11 05:05:16;;;;;;;15.20;2.35;;;8.10;99.90;;;;;;5003852;28;20512;-74
2022/10/11 05:07:42;;;;;;;14.82;3.65;;;8.10;99.90;;;;;;5002616;28;20046;-74
2022/10/11 05:10:08;;;;;;;23.52;3.42;;;8.00;99.90;;;;;;5002341;28;20054;-74
2022/10/11 05:12:34;;;;;;;15.43;2.83;;;8.00;99.90;;;;;;5000969;28;20046;-73
2022/10/11 05:15:00;;;;;;;20.77;3.20;;;8.00;99.90;;;;;;5007871;28;20562;-73
2022/10/11 05:17:28;;;;;;;15.40;2.50;;;8.00;99.90;;;;;;5003187;28;20054;-74
2022/10/11 05:19:57;;;;;;;18.00;3.70;;;7.90;99.90;;;;;;5001529;28;20121;-74
2022/10/11 05:22:29;;;;;;;17.10;2.53;;;8.00;99.90;;;;;;5004088;28;20046;-75
2022/10/11 05:24:54;;;;;;;22.60;2.63;;;8.00;99.90;;;;;;5003853;28;20056;-73
2022/10/11 05:27:20;;;;;;;14.77;2.88;;;8.10;99.90;;;;;;4999600;28;23083;-70
2022/10/11 05:29:46;;;;;;;13.88;2.78;;;8.10;99.90;;;;;;4997045;28;20103;-70
2022/10/11 05:32:11;;;;;;;15.25;2.70;;;8.20;99.90;;;;;;5001713;28;20050;-70
2022/10/11 05:34:37;;;;;;;20.80;2.92;;;8.20;99.90;;;;;;5001480;28;20060;-70
2022/10/11 05:37:02;;;;;;;19.30;2.55;;;8.20;99.90;;;;;;5003864;28;20044;-69
2022/10/11 05:39:28;;;;;;;15.40;3.67;;;8.30;99.90;;;;;;4997986;28;20073;-71
2022/10/11 05:41:54;;;;;;;18.77;3.05;;;8.20;99.90;;;;;;5000036;28;20042;-71
2022/10/11 05:44:19;;;;;;;14.27;3.45;;;8.30;99.90;;;;;;5005485;28;20061;-71
2022/10/11 05:46:45;;;;;;;19.00;3.70;;;8.30;99.90;;;;;;4997278;28;20050;-71
2022/10/11 05:49:11;;;;;;;16.98;2.90;;;8.30;99.90;;;;;;4999626;28;20112;-74
2022/10/11 05:51:37;;;;;;;11.95;2.72;;;8.30;99.90;;;;;;5001373;28;20516;-72
2022/10/11 05:54:02;;;;;;;15.93;3.28;;;8.20;99.90;;;;;;5003642;28;20123;-73
2022/10/11 05:56:28;;;;;;;17.42;3.13;;;8.20;99.90;;;;;;5002972;28;20049;-72
2022/10/11 05:58:56;;;;;;;15.88;2.38;;;8.30;99.90;;;;;;5005689;28;20050;-75
2022/10/11 06:01:26;;;;;;;19.00;3.22;;;8.20;99.90;;;;;;5003009;28;20494;-72
2022/10/11 06:03:52;;;;;;;24.83;3.45;;;8.20;99.90;;;;;;5004786;28;20133;-74
2022/10/11 06:06:19;;;;;;;21.08;3.92;;;8.30;99.90;;;;;;5004203;28;20592;-74
2022/10/11 06:08:45;;;;;;;17.67;5.75;;;8.30;99.90;;;;;;5009725;28;20107;-74
2022/10/11 06:11:20;;;;;;;16.17;5.10;;;8.30;99.90;;;;;;5005476;28;20052;-74
2022/10/11 06:13:47;;;;;;;18.73;3.60;;;8.30;99.90;;;;;;5004438;28;20103;-73
2022/10/11 06:16:13;;;;;;;20.77;3.28;;;8.50;99.90;;;;;;5012570;28;20057;-73
2022/10/11 06:18:39;;;;;;;18.73;4.15;;;8.50;99.90;;;;;;5007354;28;20096;-74
2022/10/11 06:21:08;;;;;;;18.45;3.10;;;8.50;99.90;;;;;;5004345;28;20525;-73
2022/10/11 06:23:33;;;;;;;19.17;3.28;;;8.60;99.90;;;;;;5009814;28;20042;-73
2022/10/11 06:26:04;;;;;;;14.82;3.67;;;8.70;99.90;;;;;;5005740;28;20443;-73
2022/10/11 06:28:30;;;;;;;16.52;2.88;;;8.70;99.90;;;;;;5000758;28;20610;-72
2022/10/11 06:30:56;;;;;;;14.35;2.55;;;8.70;99.90;;;;;;5006147;28;20117;-72
2022/10/11 06:33:22;;;;;;;17.23;3.30;;;8.80;99.90;;;;;;5010385;28;20046;-72
2022/10/11 06:35:47;;;;;;;15.30;3.47;;;8.80;99.90;;;;;;5007619;28;20115;-73
2022/10/11 06:38:13;;;;;;;24.30;5.40;;;8.80;99.90;;;;;;5010768;28;20053;-74
2022/10/11 06:40:39;;;;;;;16.40;3.42;;;8.80;99.90;;;;;;5016297;28;20192;-73
2022/10/11 06:43:05;;;;;;;20.30;3.85;;;8.80;99.90;;;;;;5011289;28;20045;-73
2022/10/11 06:45:31;;;;;;;14.27;4.13;;;9.00;99.90;;;;;;5011967;28;20042;-73
2022/10/11 06:47:56;;;;;;;18.00;3.35;;;8.90;99.90;;;;;;5007201;28;20048;-73
2022/10/11 06:50:22;;;;;;;10.45;3.10;;;8.90;99.90;;;;;;5013312;28;20125;-72
2022/10/11 06:52:48;;;;;;;13.93;3.30;;;9.00;99.90;;;;;;5015727;28;20126;-73
2022/10/11 06:55:14;;;;;;;12.18;2.92;;;9.00;99.90;;;;;;5000021;28;20133;-73
2022/10/11 06:57:40;;;;;;;16.30;3.03;;;9.10;99.90;;;;;;5001853;28;20042;-73
2022/10/11 07:00:09;;;;;;;9.90;2.80;;;9.10;99.90;;;;;;5015069;28;20507;-72
2022/10/11 07:02:35;;;;;;;24.75;5.20;;;9.20;99.90;;;;;;5006411;28;20048;-73
2022/10/11 07:05:00;;;;;;;11.30;2.85;;;9.30;99.90;;;;;;5014043;28;20049;-73
2022/10/11 07:07:26;;;;;;;14.65;2.38;;;9.30;99.90;;;;;;5009085;28;20049;-73
2022/10/11 07:09:51;;;;;;;20.52;3.28;;;9.40;99.90;;;;;;5006167;28;20064;-72
2022/10/11 07:12:17;;;;;;;13.43;2.58;;;9.40;99.90;;;;;;5004695;28;20117;-73
2022/10/11 07:14:43;;;;;;;14.02;2.47;;;9.60;99.90;;;;;;5008676;28;20141;-73
2022/10/11 07:17:09;;;;;;;14.68;2.75;;;9.60;99.90;;;;;;5008230;28;20061;-73
2022/10/11 07:19:35;;;;;;;10.95;2.13;;;9.70;99.90;;;;;;5004418;28;20046;-72
2022/10/11 07:22:00;;;;;;;15.25;2.80;;;9.70;99.90;;;;;;5007973;28;20077;-72
2022/10/11 07:24:26;;;;;;;16.33;2.90;;;9.70;99.90;;;;;;5006032;28;20052;-72
2022/10/11 07:26:52;;;;;;;21.48;3.42;;;9.70;99.90;;;;;;5003389;28;20107;-72
2022/10/11 07:29:18;;;;;;;17.13;3.25;;;9.80;99.90;;;;;;5010296;28;20645;-72
2022/10/11 07:31:43;;;;;;;16.42;2.55;;;9.90;99.90;;;;;;5006244;28;20038;-72
2022/10/11 07:34:10;;;;;;;21.52;4.40;;;10.10;99.90;;;;;;5005537;28;20378;-72
2022/10/11 07:36:36;;;;;;;19.45;3.65;;;10.10;99.90;;;;;;5008042;28;20045;-73
2022/10/11 07:39:03;;;;;;;12.43;3.28;;;10.20;99.90;;;;;;5009402;28;20144;-73
2022/10/11 07:41:29;;;;;;;10.82;3.42;;;10.40;99.90;;;;;;5014845;28;20179;-73
2022/10/11 07:43:55;;;;;;;15.40;3.40;;;10.50;99.90;;;;;;5003817;28;20066;-71
2022/10/11 07:46:21;;;;;;;17.35;3.35;;;10.60;99.90;;;;;;5005428;28;20054;-72
2022/10/11 07:48:48;;;;;;;17.27;3.40;;;10.60;99.90;;;;;;5010420;28;20099;-72
2022/10/11 07:51:19;;;;;;;10.90;2.65;;;10.70;99.90;;;;;;5011718;28;20057;-72
2022/10/11 07:53:48;;;;;;;13.57;3.15;;;10.80;99.90;;;;;;5007880;28;20049;-73
2022/10/11 07:56:16;;;;;;;17.58;2.90;;;10.80;99.90;;;;;;5002802;28;20129;-73
2022/10/11 07:58:42;;;;;;;13.75;2.97;;;10.80;99.90;;;;;;5008701;28;20061;-73
2022/10/11 08:01:09;;;;;;;15.52;2.97;;;10.90;99.90;;;;;;4997971;28;20134;-74
2022/10/11 08:03:36;;;;;;;16.08;3.15;;;11.00;99.90;;;;;;5005459;28;20058;-73
2022/10/11 08:06:05;;;;;;;17.73;3.10;;;10.90;99.90;;;;;;5002437;28;20136;-73
2022/10/11 08:08:30;;;;;;;14.40;2.78;;;10.90;99.90;;;;;;5014023;28;20114;-74
2022/10/11 08:10:57;;;;;;;16.13;2.88;;;10.90;99.90;;;;;;5011165;28;20104;-74
2022/10/11 08:13:23;;;;;;;14.43;2.70;;;10.90;99.90;;;;;;5015290;28;20041;-74
2022/10/11 08:15:49;;;;;;;18.15;2.72;;;11.00;99.90;;;;;;5016937;28;20052;-74
2022/10/11 08:18:15;;;;;;;14.88;3.10;;;11.10;99.90;;;;;;5014757;28;20029;-74
2022/10/11 08:20:40;;;;;;;14.38;2.72;;;11.20;99.90;;;;;;5016511;28;20073;-74
2022/10/11 08:23:09;;;;;;;13.73;2.60;;;11.40;99.90;;;;;;5013695;28;20054;-73
2022/10/11 08:25:41;;;;;;;14.57;2.83;;;11.50;99.90;;;;;;5007136;28;20054;-73
2022/10/11 08:28:15;;;;;;;9.82;2.53;;;11.60;99.90;;;;;;5011058;28;20045;-72
2022/10/11 08:30:48;;;;;;;13.85;2.33;;;11.70;99.90;;;;;;5011628;28;20046;-72
2022/10/11 08:33:14;;;;;;;16.23;3.10;;;11.80;99.90;;;;;;5010370;28;20049;-72
2022/10/11 08:35:40;;;;;;;13.85;2.42;;;11.80;99.90;;;;;;5013662;28;20042;-73
2022/10/11 08:38:05;;;;;;;15.88;2.92;;;11.90;99.90;;;;;;5014588;28;20052;-73
2022/10/11 08:40:31;;;;;;;16.27;2.80;;;12.00;99.90;;;;;;5006256;28;20046;-72
2022/10/11 08:43:04;;;;;;;11.90;2.80;;;12.00;99.90;;;;;;5009735;28;20079;-72
2022/10/11 08:45:42;;;;;;;16.20;2.92;;;12.10;99.90;;;;;;5011770;28;20452;-74
2022/10/11 08:48:22;;;;;;;19.92;3.28;;;12.10;99.90;;;;;;5012408;28;20072;-73
2022/10/11 08:50:51;;;;;;;14.70;2.38;;;12.20;99.90;;;;;;5010759;28;20527;-73
2022/10/11 08:53:52;;;;;;;16.77;3.10;;;12.20;99.90;;;;;;5008303;28;20042;-72
2022/10/11 08:56:21;;;;;;;19.02;2.67;;;12.30;99.90;;;;;;5005203;28;20137;-73
2022/10/11 08:58:56;;;;;;;13.23;2.67;;;12.50;99.90;;;;;;5005985;28;20048;-73
2022/10/11 09:01:24;;;;;;;13.43;2.78;;;12.60;99.90;;;;;;5007866;28;20050;-73
2022/10/11 09:03:51;;;;;;;13.90;2.97;;;12.70;99.90;;;;;;5012628;28;20034;-73
2022/10/11 09:06:22;;;;;;;16.60;2.92;;;12.70;99.90;;;;;;5017802;28;20054;-73
2022/10/11 09:09:22;;;;;;;10.70;2.83;;;12.80;99.90;;;;;;5009376;28;20983;-72
2022/10/11 09:12:10;;;;;;;11.43;2.20;;;13.00;99.90;;;;;;5008994;28;20107;-73
2022/10/11 09:14:46;;;;;;;14.43;2.22;;;13.00;99.90;;;;;;5004336;28;20058;-73
2022/10/11 09:17:49;;;;;;;16.27;2.97;;;13.20;99.90;;;;;;5003039;28;20069;-72
2022/10/11 09:20:39;;;;;;;8.77;2.03;;;13.30;99.90;;;;;;5013812;28;20125;-73
2022/10/11 09:23:16;;;;;;;11.30;2.10;;;13.40;99.90;;;;;;5004273;28;20042;-73
2022/10/11 09:26:03;;;;;;;8.90;2.72;;;13.50;99.90;;;;;;5007911;28;20046;-74
2022/10/11 09:28:51;;;;;;;14.45;2.75;;;13.60;99.90;;;;;;5010439;28;20050;-74
2022/10/11 09:31:16;;;;;;;11.65;1.98;;;13.80;99.90;;;;;;5009604;28;20056;-73
2022/10/11 09:33:47;;;;;;;10.77;2.40;;;13.90;99.90;;;;;;5012332;28;20046;-73
2022/10/11 09:36:19;;;;;;;16.17;2.30;;;13.90;99.90;;;;;;5008400;28;20045;-74
2022/10/11 09:38:51;;;;;;;9.00;2.15;;;14.00;99.90;;;;;;5007122;28;20512;-73
2022/10/11 09:41:41;;;;;;;14.20;2.10;;;14.00;99.90;;;;;;5004880;28;20046;-73
2022/10/11 09:44:14;;;;;;;7.85;1.75;;;14.10;99.90;;;;;;5019718;28;20056;-73
2022/10/11 09:46:41;;;;;;;10.45;2.10;;;14.10;99.90;;;;;;5012493;28;20505;-74
2022/10/11 09:49:12;;;;;;;8.40;2.15;;;14.10;99.90;;;;;;5013856;28;20600;-73
2022/10/11 09:51:42;;;;;;;9.35;2.00;;;14.20;99.90;;;;;;5017316;28;20062;-74
2022/10/11 09:54:11;;;;;;;13.52;2.60;;;14.30;99.90;;;;;;5006993;28;20046;-74
2022/10/11 09:56:42;;;;;;;13.10;2.10;;;14.40;99.90;;;;;;5011805;28;20046;-74
2022/10/11 09:59:21;;;;;;;13.65;2.30;;;14.40;99.90;;;;;;5012706;28;20046;-73
2022/10/11 10:01:48;;;;;;;10.82;2.22;;;14.50;99.90;;;;;;5014116;28;20426;-74
2022/10/11 10:04:18;;;;;;;10.10;2.13;;;14.50;99.90;;;;;;5012702;28;20137;-74
2022/10/11 10:06:44;;;;;;;8.90;2.33;;;14.60;99.90;;;;;;5010834;28;20058;-74
2022/10/11 10:09:25;;;;;;;13.00;2.00;;;14.70;99.90;;;;;;5003157;28;20096;-73
2022/10/11 10:11:53;;;;;;;10.50;2.10;;;14.80;99.90;;;;;;5006092;28;20508;-73
2022/10/11 10:14:26;;;;;;;14.05;2.05;;;14.80;99.90;;;;;;5009117;28;20034;-75
2022/10/11 10:17:16;;;;;;;11.82;2.20;;;14.90;99.90;;;;;;5007568;28;20049;-76
2022/10/11 10:19:49;;;;;;;11.95;2.17;;;15.10;99.90;;;;;;5011494;28;20104;-75
2022/10/11 10:22:21;;;;;;;13.02;2.83;;;15.20;99.90;;;;;;5008102;28;20034;-75
2022/10/11 10:24:49;;;;;;;16.25;2.25;;;15.30;99.90;;;;;;5008565;28;20042;-74
2022/10/11 10:27:22;;;;;;;9.23;1.85;;;15.40;99.90;;;;;;5013326;28;20061;-74
2022/10/11 10:30:06;;;;;;;11.38;1.92;;;15.50;99.90;;;;;;5002526;28;20042;-73
2022/10/11 10:32:52;;;;;;;11.88;2.05;;;15.50;99.90;;;;;;5003564;28;20505;-73
2022/10/11 10:35:41;;;;;;;9.45;1.85;;;15.60;99.90;;;;;;5005806;28;20080;-73
2022/10/11 10:38:31;;;;;;;14.52;2.58;;;15.60;99.90;;;;;;4998498;28;20046;-73
2022/10/11 10:41:02;;;;;;;12.65;2.67;;;15.70;99.90;;;;;;5005266;28;20054;-74
2022/10/11 10:43:33;;;;;;;9.70;1.73;;;15.70;99.90;;;;;;5004876;28;20056;-75
2022/10/11 10:46:17;;;;;;;12.15;2.30;;;15.70;99.90;;;;;;5001176;28;20046;-75
2022/10/11 10:48:51;;;;;;;11.18;2.33;;;15.70;99.90;;;;;;5003421;28;20579;-75
2022/10/11 10:51:34;;;;;;;12.15;1.80;;;15.60;99.90;;;;;;5011559;28;20049;-74
2022/10/11 10:54:32;;;;;;;10.00;2.00;;;15.60;99.90;;;;;;5002253;28;20054;-74
2022/10/11 10:57:02;;;;;;;12.98;1.83;;;15.60;99.90;;;;;;5007243;28;20695;-73
2022/10/11 10:59:52;;;;;;;11.43;1.88;;;15.50;99.90;;;;;;5007952;28;20049;-75
2022/10/11 11:02:42;;;;;;;11.95;1.90;;;15.50;99.90;;;;;;5005789;28;20509;-76
2022/10/11 11:05:22;;;;;;;12.48;2.75;;;15.50;99.90;;;;;;5009646;28;20049;-74
2022/10/11 11:07:53;;;;;;;11.25;2.05;;;15.60;99.90;;;;;;5001262;28;20515;-74
2022/10/11 11:10:31;;;;;;;12.88;1.80;;;15.70;99.90;;;;;;5010944;28;20038;-75
2022/10/11 11:13:16;;;;;;;12.68;2.03;;;15.90;99.90;;;;;;5007552;28;20576;-75
2022/10/11 11:15:50;;;;;;;8.68;1.63;;;16.20;99.90;;;;;;5009123;28;20049;-75
2022/10/11 11:18:31;;;;;;;10.20;2.47;;;16.30;99.90;;;;;;5008974;28;20046;-75
2022/10/11 11:21:26;;;;;;;12.07;2.65;;;16.40;99.90;;;;;;5013647;28;20048;-74
2022/10/11 11:24:15;;;;;;;16.17;2.17;;;16.50;99.90;;;;;;5013633;28;20042;-75
2022/10/11 11:26:54;;;;;;;11.88;2.50;;;16.60;99.90;;;;;;5004130;28;20452;-76
2022/10/11 11:29:38;;;;;;;8.10;1.63;;;16.50;99.90;;;;;;5002149;28;20157;-76
2022/10/11 11:32:29;;;;;;;11.40;2.47;;;16.20;99.90;;;;;;5010218;28;20060;-75
2022/10/11 11:35:02;;;;;;;13.55;2.22;;;16.00;99.90;;;;;;5004750;28;20042;-75
2022/10/11 11:37:36;;;;;;;9.13;2.30;;;15.80;99.90;;;;;;5009640;28;20050;-76
2022/10/11 11:40:17;;;;;;;10.32;2.03;;;15.60;99.90;;;;;;5007852;28;20534;-78
2022/10/11 11:42:52;;;;;;;15.88;2.33;;;15.50;99.90;;;;;;5010145;28;20476;-76
2022/10/11 11:45:22;;;;;;;13.85;2.22;;;15.30;99.90;;;;;;4999762;28;20046;-75
2022/10/11 11:47:58;;;;;;;8.80;1.58;;;15.20;99.90;;;;;;5007940;28;20098;-76
2022/10/11 11:50:33;;;;;;;9.43;2.30;;;15.10;99.90;;;;;;5011478;28;20041;-76
2022/10/11 11:53:04;;;;;;;8.32;2.03;;;15.00;99.90;;;;;;5006114;28;20038;-76
2022/10/11 11:56:00;;;;;;;9.88;1.75;;;15.00;99.90;;;;;;5003436;28;20432;-77
2022/10/11 11:58:48;;;;;;;6.57;1.75;;;15.10;99.90;;;;;;5004650;28;20067;-76
2022/10/11 12:01:28;;;;;;;11.50;2.03;;;15.20;99.90;;;;;;5006492;28;20137;-76
2022/10/11 12:04:00;;;;;;;5.35;1.27;;;15.40;99.90;;;;;;5003148;28;20049;-76
2022/10/11 12:06:30;;;;;;;8.65;1.70;;;15.50;99.90;;;;;;5009413;28;20412;-77
2022/10/11 12:09:20;;;;;;;11.15;1.90;;;15.70;99.90;;;;;;5011600;28;20046;-76
2022/10/11 12:11:53;;;;;;;12.80;2.33;;;15.70;99.90;;;;;;5019575;28;20409;-77
2022/10/11 12:14:30;;;;;;;10.45;1.83;;;15.70;99.90;;;;;;5006706;28;20077;-76
2022/10/11 12:17:16;;;;;;;11.60;2.47;;;15.70;99.90;;;;;;5000688;28;20041;-76
2022/10/11 12:20:10;;;;;;;5.95;1.70;;;15.80;99.90;;;;;;5006113;28;20108;-74
2022/10/11 12:22:50;;;;;;;6.80;1.83;;;15.90;99.90;;;;;;4991673;28;20045;-73
2022/10/11 12:25:22;;;;;;;7.32;1.88;;;15.90;99.90;;;;;;5006869;28;20485;-75
2022/10/11 12:27:50;;;;;;;8.88;1.58;;;16.00;99.90;;;;;;5002175;28;20041;-76
2022/10/11 12:30:47;;;;;;;11.98;1.83;;;16.00;99.90;;;;;;5004173;28;20159;-75
2022/10/11 12:33:20;;;;;;;9.60;2.30;;;16.10;99.90;;;;;;5006972;28;20069;-75
2022/10/11 12:35:52;;;;;;;9.25;1.70;;;16.20;99.90;;;;;;5010403;28;20061;-75
2022/10/11 12:38:19;;;;;;;10.40;2.17;;;16.30;99.90;;;;;;5004883;28;20521;-76
2022/10/11 12:40:46;;;;;;;8.63;1.60;;;16.20;99.90;;;;;;5004585;28;20037;-75
2022/10/11 12:43:15;;;;;;;11.85;1.95;;;16.20;99.90;;;;;;5010680;28;20053;-76
2022/10/11 12:45:46;;;;;;;7.30;1.52;;;16.10;99.90;;;;;;5006102;28;20050;-75
2022/10/11 12:48:24;;;;;;;5.55;1.63;;;16.10;99.90;;;;;;5006017;28;20049;-76
2022/10/11 12:51:17;;;;;;;9.75;1.83;;;16.10;99.90;;;;;;5007274;28;20454;-76
2022/10/11 12:54:06;;;;;;;8.05;1.75;;;16.20;99.90;;;;;;5005790;28;20091;-75
2022/10/11 12:57:12;;;;;;;10.27;1.77;;;16.30;99.90;;;;;;5002561;28;20049;-74
2022/10/11 12:59:43;;;;;;;9.30;1.40;;;16.20;99.90;;;;;;5009753;28;20088;-74
2022/10/11 13:02:28;;;;;;;9.30;2.05;;;16.20;99.90;;;;;;5006938;28;20080;-75
2022/10/11 13:05:14;;;;;;;5.55;1.65;;;16.20;99.90;;;;;;5001823;28;20178;-74
2022/10/11 13:07:40;;;;;;;8.35;1.58;;;16.00;99.90;;;;;;5005504;28;20068;-74